Airfield :
LOGIN :

Register | Disclaimer

   EN    FR    IT 

 










Legend :    VFR   Marginal VFR   IFR   Intensive IFR   Very Intensive IFR
Visi :
Ceiling :
>= 8 km
>= 3000ft
5 to 8 km
1000 to 3000 ft
1500m to 5 km
500 to 1000 ft
800 to 1500m
200 to 500 ft
< 800m
< 200 ft
Symbols :   Thunderstorms  Fog  Heavy snow  Heavy precipitations  Wind > 20 kt
SIGMETs :     Misc.  Thunderstorms  Icing  Turbulence  Mountain Waves  Volcanic Ashes






- Airport Elevation : 290 ft
- IATA code : LAI


LFRO - Lannion

CURRENT METAR :
  • 301400Z AUTO 09007KT 050V130 8000 OVC005 05/05 Q1022

EXPIRED METARs :
  • 301330Z AUTO 11007KT 070V130 4400 BR OVC003 05/05 Q1022
  • 301300Z AUTO 10007KT 3500 BR OVC003 05/05 Q1022
  • 301230Z AUTO 11008KT 070V130 1000 R29/1300U BCFG VV/// 05/05 Q1022
  • 301200Z AUTO 12009KT 080V140 0600 0550 R29/0800N FG VV/// 05/05 Q1022
  • 301130Z AUTO 12010KT 0500 0450 R29/0600N FG VV/// 05/05 Q1022

Expired Forecast.



MET'MAP, your aeronautical weather chart ! - Copyright ORBIFLY December 2007 - Disclaimer

ORBIFLY MET'MAP TEAM :

Programming & Development : Alexandra Zaïnal
Original concept : Baudouin d'Aumeries
Technical & hardware support : Manuel Goepfert
Assistance : Marc-Olivier Méhu




SOURCES & CREDITS :

   NOAA